sensor_id;sensor_type;location;lat;lon;timestamp;P1;durP1;ratioP1;P2;durP2;ratioP2
77010;SDS011;65945;53.148;17.956;2023-03-31T00:00:26;22.20;;;14.10;;
77010;SDS011;65945;53.148;17.956;2023-03-31T00:03:10;17.50;;;11.30;;
77010;SDS011;65945;53.148;17.956;2023-03-31T00:05:36;17.00;;;12.00;;
77010;SDS011;65945;53.148;17.956;2023-03-31T00:08:03;18.20;;;13.70;;
77010;SDS011;65945;53.148;17.956;2023-03-31T00:10:31;22.40;;;14.30;;
77010;SDS011;65945;53.148;17.956;2023-03-31T00:13:00;25.20;;;16.50;;
77010;SDS011;65945;53.148;17.956;2023-03-31T00:15:27;21.80;;;13.60;;
77010;SDS011;65945;53.148;17.956;2023-03-31T00:17:55;23.20;;;15.10;;
77010;SDS011;65945;53.148;17.956;2023-03-31T00:20:25;16.50;;;9.90;;
77010;SDS011;65945;53.148;17.956;2023-03-31T00:22:52;16.30;;;10.00;;
77010;SDS011;65945;53.148;17.956;2023-03-31T00:25:20;18.80;;;11.50;;
77010;SDS011;65945;53.148;17.956;2023-03-31T00:27:46;18.10;;;10.00;;
77010;SDS011;65945;53.148;17.956;2023-03-31T00:30:15;20.70;;;11.90;;
77010;SDS011;65945;53.148;17.956;2023-03-31T00:32:42;19.80;;;10.90;;
77010;SDS011;65945;53.148;17.956;2023-03-31T00:35:08;17.30;;;10.00;;
77010;SDS011;65945;53.148;17.956;2023-03-31T00:37:35;16.00;;;9.50;;
77010;SDS011;65945;53.148;17.956;2023-03-31T00:40:03;18.90;;;11.30;;
77010;SDS011;65945;53.148;17.956;2023-03-31T00:42:38;14.90;;;8.70;;
77010;SDS011;65945;53.148;17.956;2023-03-31T00:47:43;15.70;;;9.50;;
77010;SDS011;65945;53.148;17.956;2023-03-31T00:50:16;19.50;;;11.40;;
77010;SDS011;65945;53.148;17.956;2023-03-31T00:52:56;20.50;;;11.00;;
77010;SDS011;65945;53.148;17.956;2023-03-31T00:55:34;25.80;;;12.00;;
77010;SDS011;65945;53.148;17.956;2023-03-31T00:58:05;16.80;;;10.70;;
77010;SDS011;65945;53.148;17.956;2023-03-31T01:00:33;17.50;;;9.90;;
77010;SDS011;65945;53.148;17.956;2023-03-31T01:03:00;17.90;;;12.00;;
77010;SDS011;65945;53.148;17.956;2023-03-31T01:05:42;21.30;;;11.90;;
77010;SDS011;65945;53.148;17.956;2023-03-31T01:08:13;19.30;;;11.70;;
77010;SDS011;65945;53.148;17.956;2023-03-31T01:10:42;22.60;;;12.80;;
77010;SDS011;65945;53.148;17.956;2023-03-31T01:13:13;21.80;;;12.40;;
77010;SDS011;65945;53.148;17.956;2023-03-31T01:15:41;22.70;;;13.00;;
77010;SDS011;65945;53.148;17.956;2023-03-31T01:18:09;21.70;;;12.80;;
77010;SDS011;65945;53.148;17.956;2023-03-31T01:28:51;20.00;;;12.10;;
77010;SDS011;65945;53.148;17.956;2023-03-31T01:31:32;21.70;;;11.50;;
77010;SDS011;65945;53.148;17.956;2023-03-31T01:42:37;20.50;;;12.90;;
77010;SDS011;65945;53.148;17.956;2023-03-31T01:47:45;23.80;;;12.80;;
77010;SDS011;65945;53.148;17.956;2023-03-31T01:50:29;19.50;;;12.30;;
77010;SDS011;65945;53.148;17.956;2023-03-31T01:53:02;21.60;;;13.60;;
77010;SDS011;65945;53.148;17.956;2023-03-31T01:55:40;19.90;;;13.40;;
77010;SDS011;65945;53.148;17.956;2023-03-31T01:58:20;24.30;;;13.10;;
77010;SDS011;65945;53.148;17.956;2023-03-31T02:00:56;27.10;;;14.60;;
77010;SDS011;65945;53.148;17.956;2023-03-31T02:03:30;20.80;;;12.70;;
77010;SDS011;65945;53.148;17.956;2023-03-31T02:06:05;20.80;;;12.70;;
77010;SDS011;65945;53.148;17.956;2023-03-31T02:08:39;18.70;;;12.10;;
77010;SDS011;65945;53.148;17.956;2023-03-31T02:11:10;22.50;;;12.80;;
77010;SDS011;65945;53.148;17.956;2023-03-31T02:13:38;19.90;;;12.10;;
77010;SDS011;65945;53.148;17.956;2023-03-31T02:16:08;24.00;;;14.80;;
77010;SDS011;65945;53.148;17.956;2023-03-31T02:18:38;21.30;;;13.80;;
77010;SDS011;65945;53.148;17.956;2023-03-31T02:21:09;22.80;;;14.60;;
77010;SDS011;65945;53.148;17.956;2023-03-31T02:23:39;20.40;;;13.60;;
77010;SDS011;65945;53.148;17.956;2023-03-31T02:26:08;22.60;;;12.70;;
77010;SDS011;65945;53.148;17.956;2023-03-31T02:28:39;25.70;;;14.70;;
77010;SDS011;65945;53.148;17.956;2023-03-31T02:34:09;30.30;;;16.60;;
77010;SDS011;65945;53.148;17.956;2023-03-31T02:36:36;22.70;;;14.40;;
77010;SDS011;65945;53.148;17.956;2023-03-31T02:39:07;22.10;;;12.90;;
77010;SDS011;65945;53.148;17.956;2023-03-31T02:41:36;21.20;;;13.20;;
77010;SDS011;65945;53.148;17.956;2023-03-31T02:44:03;20.80;;;12.50;;
77010;SDS011;65945;53.148;17.956;2023-03-31T02:46:30;18.80;;;12.20;;
77010;SDS011;65945;53.148;17.956;2023-03-31T02:49:00;22.80;;;12.30;;
77010;SDS011;65945;53.148;17.956;2023-03-31T02:57:32;20.00;;;11.10;;
77010;SDS011;65945;53.148;17.956;2023-03-31T03:05:45;17.90;;;10.40;;
77010;SDS011;65945;53.148;17.956;2023-03-31T03:11:51;17.30;;;9.80;;
77010;SDS011;65945;53.148;17.956;2023-03-31T03:17:38;15.50;;;9.20;;
77010;SDS011;65945;53.148;17.956;2023-03-31T03:20:11;16.40;;;9.30;;
77010;SDS011;65945;53.148;17.956;2023-03-31T03:22:39;17.00;;;8.70;;
77010;SDS011;65945;53.148;17.956;2023-03-31T03:25:06;17.90;;;9.50;;
77010;SDS011;65945;53.148;17.956;2023-03-31T03:27:35;16.90;;;9.00;;
77010;SDS011;65945;53.148;17.956;2023-03-31T03:30:03;15.30;;;8.70;;
77010;SDS011;65945;53.148;17.956;2023-03-31T03:32:32;16.80;;;8.70;;
77010;SDS011;65945;53.148;17.956;2023-03-31T03:35:00;14.50;;;8.90;;
77010;SDS011;65945;53.148;17.956;2023-03-31T03:37:27;13.40;;;8.30;;
77010;SDS011;65945;53.148;17.956;2023-03-31T03:39:55;14.40;;;8.00;;
77010;SDS011;65945;53.148;17.956;2023-03-31T03:42:22;13.30;;;8.10;;
77010;SDS011;65945;53.148;17.956;2023-03-31T03:44:48;12.30;;;7.30;;
77010;SDS011;65945;53.148;17.956;2023-03-31T03:47:15;13.30;;;7.50;;
77010;SDS011;65945;53.148;17.956;2023-03-31T03:49:42;13.80;;;7.10;;
77010;SDS011;65945;53.148;17.956;2023-03-31T03:52:08;12.50;;;6.50;;
77010;SDS011;65945;53.148;17.956;2023-03-31T03:54:35;11.40;;;6.10;;
77010;SDS011;65945;53.148;17.956;2023-03-31T03:57:02;12.00;;;6.60;;
77010;SDS011;65945;53.148;17.956;2023-03-31T03:59:28;11.30;;;6.70;;
77010;SDS011;65945;53.148;17.956;2023-03-31T04:01:55;13.90;;;6.20;;
77010;SDS011;65945;53.148;17.956;2023-03-31T04:04:21;11.90;;;6.00;;
77010;SDS011;65945;53.148;17.956;2023-03-31T04:06:48;9.80;;;5.70;;
77010;SDS011;65945;53.148;17.956;2023-03-31T04:09:15;11.60;;;6.20;;
77010;SDS011;65945;53.148;17.956;2023-03-31T04:11:41;12.80;;;5.80;;
77010;SDS011;65945;53.148;17.956;2023-03-31T04:14:08;10.70;;;5.00;;
77010;SDS011;65945;53.148;17.956;2023-03-31T04:16:34;12.00;;;5.30;;
77010;SDS011;65945;53.148;17.956;2023-03-31T04:19:01;11.70;;;5.70;;
77010;SDS011;65945;53.148;17.956;2023-03-31T04:21:30;12.50;;;5.90;;
77010;SDS011;65945;53.148;17.956;2023-03-31T04:24:00;11.40;;;5.50;;
77010;SDS011;65945;53.148;17.956;2023-03-31T04:26:30;14.60;;;6.10;;
77010;SDS011;65945;53.148;17.956;2023-03-31T04:29:09;10.80;;;5.90;;
77010;SDS011;65945;53.148;17.956;2023-03-31T04:31:38;11.90;;;6.30;;
77010;SDS011;65945;53.148;17.956;2023-03-31T04:34:11;12.50;;;7.00;;
77010;SDS011;65945;53.148;17.956;2023-03-31T04:36:44;12.60;;;6.70;;
77010;SDS011;65945;53.148;17.956;2023-03-31T04:39:16;12.30;;;6.80;;
77010;SDS011;65945;53.148;17.956;2023-03-31T04:41:52;13.30;;;7.30;;
77010;SDS011;65945;53.148;17.956;2023-03-31T04:44:19;16.00;;;8.10;;
77010;SDS011;65945;53.148;17.956;2023-03-31T04:46:46;16.60;;;8.00;;
77010;SDS011;65945;53.148;17.956;2023-03-31T04:49:12;16.00;;;8.80;;
77010;SDS011;65945;53.148;17.956;2023-03-31T04:51:39;16.50;;;9.10;;
77010;SDS011;65945;53.148;17.956;2023-03-31T04:54:06;18.10;;;9.40;;
77010;SDS011;65945;53.148;17.956;2023-03-31T04:56:32;18.30;;;7.50;;
77010;SDS011;65945;53.148;17.956;2023-03-31T04:58:59;11.10;;;6.10;;
77010;SDS011;65945;53.148;17.956;2023-03-31T05:01:26;14.70;;;6.60;;
77010;SDS011;65945;53.148;17.956;2023-03-31T05:03:53;16.20;;;7.30;;
77010;SDS011;65945;53.148;17.956;2023-03-31T05:06:19;18.10;;;8.30;;
77010;SDS011;65945;53.148;17.956;2023-03-31T05:08:46;15.20;;;7.90;;
77010;SDS011;65945;53.148;17.956;2023-03-31T05:11:12;12.00;;;6.90;;
77010;SDS011;65945;53.148;17.956;2023-03-31T05:13:39;14.10;;;7.20;;
77010;SDS011;65945;53.148;17.956;2023-03-31T05:16:06;13.20;;;8.00;;
77010;SDS011;65945;53.148;17.956;2023-03-31T05:18:34;14.70;;;7.00;;
77010;SDS011;65945;53.148;17.956;2023-03-31T05:21:36;16.80;;;7.00;;
77010;SDS011;65945;53.148;17.956;2023-03-31T05:23:56;13.30;;;7.20;;
77010;SDS011;65945;53.148;17.956;2023-03-31T05:26:23;13.60;;;7.50;;
77010;SDS011;65945;53.148;17.956;2023-03-31T05:28:51;21.60;;;8.10;;
77010;SDS011;65945;53.148;17.956;2023-03-31T05:31:18;17.40;;;8.20;;
77010;SDS011;65945;53.148;17.956;2023-03-31T05:33:46;14.80;;;7.50;;
77010;SDS011;65945;53.148;17.956;2023-03-31T05:36:13;18.30;;;9.90;;
77010;SDS011;65945;53.148;17.956;2023-03-31T05:38:41;13.50;;;8.30;;
77010;SDS011;65945;53.148;17.956;2023-03-31T05:41:09;18.50;;;8.70;;
77010;SDS011;65945;53.148;17.956;2023-03-31T05:43:36;15.40;;;8.30;;
77010;SDS011;65945;53.148;17.956;2023-03-31T05:46:04;17.00;;;8.90;;
77010;SDS011;65945;53.148;17.956;2023-03-31T05:48:32;15.80;;;8.40;;
77010;SDS011;65945;53.148;17.956;2023-03-31T05:50:59;17.60;;;8.80;;
77010;SDS011;65945;53.148;17.956;2023-03-31T05:53:27;15.20;;;8.00;;
77010;SDS011;65945;53.148;17.956;2023-03-31T05:55:57;16.60;;;8.00;;
77010;SDS011;65945;53.148;17.956;2023-03-31T05:58:25;17.10;;;8.40;;
77010;SDS011;65945;53.148;17.956;2023-03-31T06:01:02;18.20;;;8.90;;
77010;SDS011;65945;53.148;17.956;2023-03-31T06:03:37;16.30;;;7.90;;
77010;SDS011;65945;53.148;17.956;2023-03-31T06:06:09;15.30;;;8.80;;
77010;SDS011;65945;53.148;17.956;2023-03-31T06:08:40;16.00;;;7.80;;
77010;SDS011;65945;53.148;17.956;2023-03-31T06:11:07;15.50;;;7.70;;
77010;SDS011;65945;53.148;17.956;2023-03-31T06:13:37;16.70;;;7.30;;
77010;SDS011;65945;53.148;17.956;2023-03-31T06:16:04;12.20;;;6.70;;
77010;SDS011;65945;53.148;17.956;2023-03-31T06:18:32;11.20;;;6.60;;
77010;SDS011;65945;53.148;17.956;2023-03-31T06:21:00;12.90;;;6.20;;
77010;SDS011;65945;53.148;17.956;2023-03-31T06:23:27;12.40;;;6.60;;
77010;SDS011;65945;53.148;17.956;2023-03-31T06:25:57;13.10;;;6.70;;
77010;SDS011;65945;53.148;17.956;2023-03-31T06:28:26;12.00;;;5.80;;
77010;SDS011;65945;53.148;17.956;2023-03-31T06:31:06;10.40;;;5.20;;
77010;SDS011;65945;53.148;17.956;2023-03-31T06:33:40;11.60;;;5.40;;
77010;SDS011;65945;53.148;17.956;2023-03-31T06:36:08;13.00;;;5.70;;
77010;SDS011;65945;53.148;17.956;2023-03-31T06:38:36;11.00;;;5.50;;
77010;SDS011;65945;53.148;17.956;2023-03-31T06:41:08;9.50;;;5.30;;
77010;SDS011;65945;53.148;17.956;2023-03-31T06:43:36;13.70;;;5.80;;
77010;SDS011;65945;53.148;17.956;2023-03-31T06:46:03;13.10;;;6.00;;
77010;SDS011;65945;53.148;17.956;2023-03-31T06:48:30;10.60;;;5.10;;
77010;SDS011;65945;53.148;17.956;2023-03-31T06:51:01;12.00;;;5.70;;
77010;SDS011;65945;53.148;17.956;2023-03-31T06:53:29;11.30;;;5.10;;
77010;SDS011;65945;53.148;17.956;2023-03-31T06:55:56;7.80;;;4.70;;
77010;SDS011;65945;53.148;17.956;2023-03-31T06:58:23;10.90;;;4.90;;
77010;SDS011;65945;53.148;17.956;2023-03-31T07:00:50;9.50;;;4.40;;
77010;SDS011;65945;53.148;17.956;2023-03-31T07:03:18;7.90;;;4.70;;
77010;SDS011;65945;53.148;17.956;2023-03-31T07:05:48;10.70;;;4.40;;
77010;SDS011;65945;53.148;17.956;2023-03-31T07:08:15;10.50;;;4.00;;
77010;SDS011;65945;53.148;17.956;2023-03-31T07:10:43;9.10;;;3.90;;
77010;SDS011;65945;53.148;17.956;2023-03-31T07:13:14;15.90;;;4.60;;
77010;SDS011;65945;53.148;17.956;2023-03-31T07:15:42;13.60;;;4.20;;
77010;SDS011;65945;53.148;17.956;2023-03-31T07:18:09;11.60;;;4.20;;
77010;SDS011;65945;53.148;17.956;2023-03-31T07:20:37;9.60;;;4.70;;
77010;SDS011;65945;53.148;17.956;2023-03-31T07:23:04;10.70;;;4.20;;
77010;SDS011;65945;53.148;17.956;2023-03-31T07:25:31;10.10;;;4.40;;
77010;SDS011;65945;53.148;17.956;2023-03-31T07:27:58;9.60;;;4.20;;
77010;SDS011;65945;53.148;17.956;2023-03-31T07:30:24;9.10;;;4.50;;
77010;SDS011;65945;53.148;17.956;2023-03-31T07:32:52;10.10;;;4.50;;
77010;SDS011;65945;53.148;17.956;2023-03-31T07:35:20;10.60;;;4.80;;
77010;SDS011;65945;53.148;17.956;2023-03-31T07:37:48;6.00;;;3.50;;
77010;SDS011;65945;53.148;17.956;2023-03-31T07:40:17;8.00;;;4.00;;
77010;SDS011;65945;53.148;17.956;2023-03-31T07:42:51;8.60;;;3.90;;
77010;SDS011;65945;53.148;17.956;2023-03-31T07:45:19;9.70;;;4.80;;
77010;SDS011;65945;53.148;17.956;2023-03-31T07:47:47;10.70;;;4.30;;
77010;SDS011;65945;53.148;17.956;2023-03-31T07:50:14;11.90;;;3.90;;
77010;SDS011;65945;53.148;17.956;2023-03-31T07:52:42;7.80;;;3.40;;
77010;SDS011;65945;53.148;17.956;2023-03-31T07:55:09;8.00;;;3.70;;
77010;SDS011;65945;53.148;17.956;2023-03-31T07:57:37;7.00;;;3.40;;
77010;SDS011;65945;53.148;17.956;2023-03-31T08:00:04;10.20;;;3.30;;
77010;SDS011;65945;53.148;17.956;2023-03-31T08:02:39;7.10;;;3.10;;
77010;SDS011;65945;53.148;17.956;2023-03-31T08:05:10;7.90;;;3.80;;
77010;SDS011;65945;53.148;17.956;2023-03-31T08:07:40;8.00;;;3.60;;
77010;SDS011;65945;53.148;17.956;2023-03-31T08:10:10;7.70;;;3.60;;
77010;SDS011;65945;53.148;17.956;2023-03-31T08:12:39;6.80;;;3.20;;
77010;SDS011;65945;53.148;17.956;2023-03-31T08:15:06;9.30;;;3.70;;
77010;SDS011;65945;53.148;17.956;2023-03-31T08:17:34;10.20;;;3.60;;
77010;SDS011;65945;53.148;17.956;2023-03-31T08:20:01;7.30;;;3.40;;
77010;SDS011;65945;53.148;17.956;2023-03-31T08:22:32;9.10;;;3.40;;
77010;SDS011;65945;53.148;17.956;2023-03-31T08:24:58;9.00;;;3.90;;
77010;SDS011;65945;53.148;17.956;2023-03-31T08:27:25;7.50;;;3.70;;
77010;SDS011;65945;53.148;17.956;2023-03-31T08:29:51;13.30;;;3.90;;
77010;SDS011;65945;53.148;17.956;2023-03-31T08:32:21;9.20;;;3.70;;
77010;SDS011;65945;53.148;17.956;2023-03-31T08:34:48;10.50;;;3.80;;
77010;SDS011;65945;53.148;17.956;2023-03-31T08:37:16;8.60;;;3.50;;
77010;SDS011;65945;53.148;17.956;2023-03-31T08:39:44;8.40;;;4.00;;
77010;SDS011;65945;53.148;17.956;2023-03-31T08:47:46;6.60;;;3.10;;
77010;SDS011;65945;53.148;17.956;2023-03-31T08:50:16;9.00;;;4.00;;
77010;SDS011;65945;53.148;17.956;2023-03-31T08:52:52;6.40;;;3.10;;
77010;SDS011;65945;53.148;17.956;2023-03-31T08:55:24;13.30;;;4.20;;
77010;SDS011;65945;53.148;17.956;2023-03-31T08:58:05;11.30;;;4.50;;
77010;SDS011;65945;53.148;17.956;2023-03-31T09:00:45;7.60;;;3.40;;
77010;SDS011;65945;53.148;17.956;2023-03-31T09:03:23;8.80;;;4.10;;
77010;SDS011;65945;53.148;17.956;2023-03-31T09:06:00;9.00;;;3.70;;
77010;SDS011;65945;53.148;17.956;2023-03-31T09:14:08;9.00;;;3.80;;
77010;SDS011;65945;53.148;17.956;2023-03-31T09:22:27;10.60;;;3.90;;
77010;SDS011;65945;53.148;17.956;2023-03-31T09:25:02;8.40;;;4.30;;
77010;SDS011;65945;53.148;17.956;2023-03-31T09:27:42;9.60;;;3.10;;
77010;SDS011;65945;53.148;17.956;2023-03-31T09:32:53;8.70;;;4.00;;
77010;SDS011;65945;53.148;17.956;2023-03-31T09:35:35;9.70;;;3.80;;
77010;SDS011;65945;53.148;17.956;2023-03-31T09:38:02;9.80;;;3.90;;
77010;SDS011;65945;53.148;17.956;2023-03-31T09:40:29;11.50;;;4.50;;
77010;SDS011;65945;53.148;17.956;2023-03-31T09:42:57;11.60;;;3.80;;
77010;SDS011;65945;53.148;17.956;2023-03-31T09:45:27;11.00;;;3.90;;
77010;SDS011;65945;53.148;17.956;2023-03-31T09:47:56;11.10;;;4.30;;
77010;SDS011;65945;53.148;17.956;2023-03-31T09:50:26;10.20;;;4.30;;
77010;SDS011;65945;53.148;17.956;2023-03-31T09:52:57;10.90;;;3.30;;
77010;SDS011;65945;53.148;17.956;2023-03-31T09:55:45;8.30;;;3.70;;
77010;SDS011;65945;53.148;17.956;2023-03-31T09:58:17;10.70;;;3.70;;
77010;SDS011;65945;53.148;17.956;2023-03-31T10:01:02;10.10;;;4.50;;
77010;SDS011;65945;53.148;17.956;2023-03-31T10:03:31;8.50;;;3.40;;
77010;SDS011;65945;53.148;17.956;2023-03-31T10:06:07;11.60;;;3.60;;
77010;SDS011;65945;53.148;17.956;2023-03-31T10:08:40;8.80;;;3.60;;
77010;SDS011;65945;53.148;17.956;2023-03-31T10:11:12;10.30;;;3.40;;
77010;SDS011;65945;53.148;17.956;2023-03-31T10:13:52;11.00;;;3.20;;
77010;SDS011;65945;53.148;17.956;2023-03-31T10:18:54;10.50;;;3.50;;
77010;SDS011;65945;53.148;17.956;2023-03-31T10:21:36;9.40;;;3.20;;
77010;SDS011;65945;53.148;17.956;2023-03-31T10:24:07;7.30;;;3.00;;
77010;SDS011;65945;53.148;17.956;2023-03-31T10:26:36;10.10;;;3.10;;
77010;SDS011;65945;53.148;17.956;2023-03-31T10:29:09;11.10;;;3.00;;
77010;SDS011;65945;53.148;17.956;2023-03-31T10:31:38;10.40;;;2.90;;
77010;SDS011;65945;53.148;17.956;2023-03-31T10:34:06;9.00;;;2.50;;
77010;SDS011;65945;53.148;17.956;2023-03-31T10:36:36;10.40;;;3.00;;
77010;SDS011;65945;53.148;17.956;2023-03-31T10:39:14;10.30;;;3.70;;
77010;SDS011;65945;53.148;17.956;2023-03-31T10:41:42;11.10;;;3.50;;
77010;SDS011;65945;53.148;17.956;2023-03-31T10:44:29;10.90;;;3.30;;
77010;SDS011;65945;53.148;17.956;2023-03-31T10:46:56;10.30;;;3.70;;
77010;SDS011;65945;53.148;17.956;2023-03-31T10:49:30;12.90;;;2.80;;
77010;SDS011;65945;53.148;17.956;2023-03-31T10:52:25;7.80;;;3.20;;
77010;SDS011;65945;53.148;17.956;2023-03-31T10:54:53;11.60;;;3.00;;
77010;SDS011;65945;53.148;17.956;2023-03-31T10:57:36;9.30;;;2.70;;
77010;SDS011;65945;53.148;17.956;2023-03-31T11:00:08;11.40;;;3.00;;
77010;SDS011;65945;53.148;17.956;2023-03-31T11:02:48;10.00;;;2.90;;
77010;SDS011;65945;53.148;17.956;2023-03-31T11:05:35;10.10;;;2.90;;
77010;SDS011;65945;53.148;17.956;2023-03-31T11:08:12;9.50;;;4.00;;
77010;SDS011;65945;53.148;17.956;2023-03-31T11:13:44;18.00;;;5.00;;
77010;SDS011;65945;53.148;17.956;2023-03-31T11:19:08;9.30;;;3.00;;
77010;SDS011;65945;53.148;17.956;2023-03-31T11:24:26;10.30;;;2.50;;
77010;SDS011;65945;53.148;17.956;2023-03-31T11:43:04;9.60;;;2.60;;
77010;SDS011;65945;53.148;17.956;2023-03-31T11:45:36;11.40;;;2.40;;
77010;SDS011;65945;53.148;17.956;2023-03-31T11:48:06;9.30;;;2.90;;
77010;SDS011;65945;53.148;17.956;2023-03-31T11:50:42;9.10;;;2.90;;
77010;SDS011;65945;53.148;17.956;2023-03-31T11:53:29;7.20;;;2.20;;
77010;SDS011;65945;53.148;17.956;2023-03-31T11:55:59;6.60;;;2.60;;
77010;SDS011;65945;53.148;17.956;2023-03-31T11:58:35;8.30;;;2.60;;
77010;SDS011;65945;53.148;17.956;2023-03-31T12:01:08;11.00;;;2.70;;
77010;SDS011;65945;53.148;17.956;2023-03-31T12:03:47;11.00;;;3.00;;
77010;SDS011;65945;53.148;17.956;2023-03-31T12:06:29;8.70;;;2.50;;
77010;SDS011;65945;53.148;17.956;2023-03-31T12:11:32;8.80;;;2.70;;
77010;SDS011;65945;53.148;17.956;2023-03-31T12:19:52;15.30;;;2.40;;
77010;SDS011;65945;53.148;17.956;2023-03-31T12:22:28;8.90;;;2.50;;
77010;SDS011;65945;53.148;17.956;2023-03-31T12:25:03;9.20;;;3.20;;
77010;SDS011;65945;53.148;17.956;2023-03-31T12:41:16;4.90;;;2.00;;
77010;SDS011;65945;53.148;17.956;2023-03-31T12:57:47;11.80;;;4.40;;
77010;SDS011;65945;53.148;17.956;2023-03-31T13:00:24;5.70;;;2.40;;
77010;SDS011;65945;53.148;17.956;2023-03-31T13:05:59;9.90;;;3.90;;
77010;SDS011;65945;53.148;17.956;2023-03-31T13:11:17;10.60;;;2.80;;
77010;SDS011;65945;53.148;17.956;2023-03-31T13:16:31;10.20;;;3.30;;
77010;SDS011;65945;53.148;17.956;2023-03-31T13:19:00;10.10;;;3.60;;
77010;SDS011;65945;53.148;17.956;2023-03-31T13:21:27;6.90;;;2.60;;
77010;SDS011;65945;53.148;17.956;2023-03-31T13:23:58;11.30;;;3.60;;
77010;SDS011;65945;53.148;17.956;2023-03-31T13:29:09;12.20;;;3.10;;
77010;SDS011;65945;53.148;17.956;2023-03-31T13:48:25;11.00;;;4.10;;
77010;SDS011;65945;53.148;17.956;2023-03-31T14:02:56;9.40;;;3.70;;
77010;SDS011;65945;53.148;17.956;2023-03-31T14:05:46;11.60;;;3.80;;
77010;SDS011;65945;53.148;17.956;2023-03-31T14:08:55;10.50;;;3.50;;
77010;SDS011;65945;53.148;17.956;2023-03-31T14:11:23;6.60;;;3.10;;
77010;SDS011;65945;53.148;17.956;2023-03-31T14:13:58;9.40;;;4.50;;
77010;SDS011;65945;53.148;17.956;2023-03-31T14:16:56;8.50;;;3.00;;
77010;SDS011;65945;53.148;17.956;2023-03-31T14:22:28;8.90;;;3.80;;
77010;SDS011;65945;53.148;17.956;2023-03-31T14:30:44;9.00;;;4.00;;
77010;SDS011;65945;53.148;17.956;2023-03-31T14:33:23;8.80;;;3.80;;
77010;SDS011;65945;53.148;17.956;2023-03-31T14:36:24;12.20;;;3.40;;
77010;SDS011;65945;53.148;17.956;2023-03-31T14:39:05;6.50;;;2.60;;
77010;SDS011;65945;53.148;17.956;2023-03-31T14:41:35;15.50;;;7.60;;
77010;SDS011;65945;53.148;17.956;2023-03-31T14:44:04;12.10;;;6.20;;
77010;SDS011;65945;53.148;17.956;2023-03-31T14:46:39;10.10;;;4.50;;
77010;SDS011;65945;53.148;17.956;2023-03-31T14:49:13;8.90;;;3.30;;
77010;SDS011;65945;53.148;17.956;2023-03-31T14:52:12;11.30;;;4.80;;
77010;SDS011;65945;53.148;17.956;2023-03-31T14:54:42;12.10;;;4.30;;
77010;SDS011;65945;53.148;17.956;2023-03-31T14:57:14;11.20;;;4.60;;
77010;SDS011;65945;53.148;17.956;2023-03-31T14:59:44;10.70;;;4.60;;
77010;SDS011;65945;53.148;17.956;2023-03-31T15:02:15;10.10;;;4.50;;
77010;SDS011;65945;53.148;17.956;2023-03-31T15:04:45;8.40;;;4.20;;
77010;SDS011;65945;53.148;17.956;2023-03-31T15:07:14;15.00;;;6.60;;
77010;SDS011;65945;53.148;17.956;2023-03-31T15:09:43;17.10;;;6.80;;
77010;SDS011;65945;53.148;17.956;2023-03-31T15:12:15;13.40;;;5.60;;
77010;SDS011;65945;53.148;17.956;2023-03-31T15:14:48;19.10;;;8.10;;
77010;SDS011;65945;53.148;17.956;2023-03-31T15:17:21;44.10;;;17.60;;
77010;SDS011;65945;53.148;17.956;2023-03-31T15:19:53;27.10;;;11.40;;
77010;SDS011;65945;53.148;17.956;2023-03-31T15:22:23;14.80;;;6.10;;
77010;SDS011;65945;53.148;17.956;2023-03-31T15:24:52;16.80;;;7.00;;
77010;SDS011;65945;53.148;17.956;2023-03-31T15:30:02;13.30;;;7.20;;
77010;SDS011;65945;53.148;17.956;2023-03-31T15:32:36;13.70;;;7.60;;
77010;SDS011;65945;53.148;17.956;2023-03-31T15:35:05;17.50;;;10.70;;
77010;SDS011;65945;53.148;17.956;2023-03-31T15:37:37;15.60;;;7.90;;
77010;SDS011;65945;53.148;17.956;2023-03-31T15:43:16;15.80;;;7.80;;
77010;SDS011;65945;53.148;17.956;2023-03-31T15:45:55;16.10;;;8.30;;
77010;SDS011;65945;53.148;17.956;2023-03-31T15:51:13;15.50;;;6.90;;
77010;SDS011;65945;53.148;17.956;2023-03-31T15:53:51;10.80;;;5.50;;
77010;SDS011;65945;53.148;17.956;2023-03-31T15:59:22;14.20;;;7.70;;
77010;SDS011;65945;53.148;17.956;2023-03-31T16:01:50;17.30;;;7.60;;
77010;SDS011;65945;53.148;17.956;2023-03-31T16:04:17;20.00;;;8.00;;
77010;SDS011;65945;53.148;17.956;2023-03-31T16:06:51;19.30;;;8.10;;
77010;SDS011;65945;53.148;17.956;2023-03-31T16:12:02;29.30;;;15.50;;
77010;SDS011;65945;53.148;17.956;2023-03-31T16:14:58;14.80;;;8.00;;
77010;SDS011;65945;53.148;17.956;2023-03-31T16:17:26;17.00;;;7.00;;
77010;SDS011;65945;53.148;17.956;2023-03-31T16:20:05;18.00;;;8.70;;
77010;SDS011;65945;53.148;17.956;2023-03-31T16:22:40;24.10;;;10.70;;
77010;SDS011;65945;53.148;17.956;2023-03-31T16:25:11;23.50;;;11.80;;
77010;SDS011;65945;53.148;17.956;2023-03-31T16:27:42;19.90;;;9.80;;
77010;SDS011;65945;53.148;17.956;2023-03-31T16:30:16;17.90;;;7.80;;
77010;SDS011;65945;53.148;17.956;2023-03-31T16:32:59;14.80;;;6.60;;
77010;SDS011;65945;53.148;17.956;2023-03-31T16:35:33;13.90;;;6.90;;
77010;SDS011;65945;53.148;17.956;2023-03-31T16:38:05;18.90;;;7.00;;
77010;SDS011;65945;53.148;17.956;2023-03-31T16:40:34;14.90;;;7.10;;
77010;SDS011;65945;53.148;17.956;2023-03-31T16:43:10;14.00;;;6.60;;
77010;SDS011;65945;53.148;17.956;2023-03-31T16:45:42;18.90;;;9.50;;
77010;SDS011;65945;53.148;17.956;2023-03-31T16:48:14;19.80;;;10.80;;
77010;SDS011;65945;53.148;17.956;2023-03-31T16:50:42;22.60;;;10.20;;
77010;SDS011;65945;53.148;17.956;2023-03-31T16:53:11;24.70;;;10.50;;
77010;SDS011;65945;53.148;17.956;2023-03-31T16:55:39;14.50;;;7.60;;
77010;SDS011;65945;53.148;17.956;2023-03-31T16:58:06;17.90;;;7.50;;
77010;SDS011;65945;53.148;17.956;2023-03-31T17:00:33;56.70;;;21.30;;
77010;SDS011;65945;53.148;17.956;2023-03-31T17:03:04;116.90;;;40.20;;
77010;SDS011;65945;53.148;17.956;2023-03-31T17:05:36;35.70;;;15.90;;
77010;SDS011;65945;53.148;17.956;2023-03-31T17:08:04;28.50;;;12.30;;
77010;SDS011;65945;53.148;17.956;2023-03-31T17:10:31;19.70;;;10.10;;
77010;SDS011;65945;53.148;17.956;2023-03-31T17:12:58;38.90;;;19.90;;
77010;SDS011;65945;53.148;17.956;2023-03-31T17:15:25;33.10;;;15.70;;
77010;SDS011;65945;53.148;17.956;2023-03-31T17:17:55;33.60;;;17.40;;
77010;SDS011;65945;53.148;17.956;2023-03-31T17:20:24;44.20;;;26.00;;
77010;SDS011;65945;53.148;17.956;2023-03-31T17:22:52;48.00;;;33.60;;
77010;SDS011;65945;53.148;17.956;2023-03-31T17:25:19;54.80;;;34.40;;
77010;SDS011;65945;53.148;17.956;2023-03-31T17:27:47;51.70;;;31.70;;
77010;SDS011;65945;53.148;17.956;2023-03-31T17:30:14;50.50;;;27.80;;
77010;SDS011;65945;53.148;17.956;2023-03-31T17:32:41;38.50;;;18.00;;
77010;SDS011;65945;53.148;17.956;2023-03-31T17:35:08;33.20;;;15.50;;
77010;SDS011;65945;53.148;17.956;2023-03-31T17:37:36;32.10;;;13.90;;
77010;SDS011;65945;53.148;17.956;2023-03-31T17:40:03;29.70;;;13.70;;
77010;SDS011;65945;53.148;17.956;2023-03-31T17:42:31;32.50;;;15.50;;
77010;SDS011;65945;53.148;17.956;2023-03-31T17:44:57;34.00;;;14.90;;
77010;SDS011;65945;53.148;17.956;2023-03-31T17:47:24;37.70;;;16.20;;
77010;SDS011;65945;53.148;17.956;2023-03-31T17:49:51;31.50;;;15.90;;
77010;SDS011;65945;53.148;17.956;2023-03-31T17:52:17;30.80;;;15.60;;